Time;durP1;ratioP1;P1;durP2;ratioP2;P2;SDS_P1;SDS_P2;PMS_P1;PMS_P2;Temp;Humidity;BMP_temperature;BMP_pressure;BME280_temperature;BME280_humidity;BME280_pressure;Samples;Min_cycle;Max_cycle;Signal;HPM_P1;HPM_P2
2023/11/06 00:00:13;;;;;;;1.80;1.00;;;14.50;90.00;;;;;;5000642;28;20033;-82
2023/11/06 00:02:39;;;;;;;1.92;0.80;;;14.60;90.20;;;;;;5004958;28;20034;-81
2023/11/06 00:05:05;;;;;;;1.60;0.80;;;14.50;90.10;;;;;;5007842;28;20048;-82
2023/11/06 00:07:31;;;;;;;1.88;0.85;;;14.50;90.20;;;;;;4998243;28;20404;-82
2023/11/06 00:09:57;;;;;;;1.75;0.80;;;14.50;90.20;;;;;;5014111;28;20459;-82
2023/11/06 00:12:23;;;;;;;1.30;0.70;;;14.50;90.20;;;;;;5014483;28;20022;-83
2023/11/06 00:14:48;;;;;;;1.73;0.77;;;14.50;90.20;;;;;;5014458;28;20030;-81
2023/11/06 00:17:14;;;;;;;2.45;0.82;;;14.50;90.20;;;;;;5012996;28;20084;-81
2023/11/06 00:19:39;;;;;;;2.03;0.70;;;14.40;90.20;;;;;;5014475;28;20026;-81
2023/11/06 00:22:06;;;;;;;1.02;0.70;;;14.50;90.30;;;;;;4995838;28;20086;-81
2023/11/06 00:24:31;;;;;;;1.08;0.75;;;14.40;90.30;;;;;;4995930;28;20478;-81
2023/11/06 00:26:57;;;;;;;1.30;0.70;;;14.50;90.30;;;;;;4997914;28;20026;-83
2023/11/06 00:29:22;;;;;;;1.90;0.90;;;14.40;90.30;;;;;;4997248;28;20022;-82
2023/11/06 00:31:48;;;;;;;1.90;0.90;;;14.40;90.30;;;;;;5002318;28;20034;-82
2023/11/06 00:34:14;;;;;;;1.45;0.80;;;14.50;90.30;;;;;;4995713;28;20038;-82
2023/11/06 00:36:40;;;;;;;1.27;0.70;;;14.40;90.30;;;;;;4999266;28;20026;-82
2023/11/06 00:39:07;;;;;;;1.70;0.90;;;14.40;90.30;;;;;;5008169;28;20028;-82
2023/11/06 00:41:32;;;;;;;1.48;0.77;;;14.40;90.30;;;;;;5004113;28;20379;-81
2023/11/06 00:43:58;;;;;;;1.83;0.88;;;14.40;90.30;;;;;;4997093;28;20023;-82
2023/11/06 00:46:23;;;;;;;1.42;0.70;;;14.40;90.30;;;;;;4994601;28;20022;-82
2023/11/06 00:48:49;;;;;;;1.88;0.60;;;14.40;90.30;;;;;;4995415;28;20027;-81
2023/11/06 00:51:14;;;;;;;1.02;0.55;;;14.40;90.30;;;;;;4995404;28;20030;-82
2023/11/06 00:53:40;;;;;;;1.27;0.70;;;14.40;90.30;;;;;;5008981;28;20033;-82
2023/11/06 00:56:06;;;;;;;1.48;0.80;;;14.40;90.30;;;;;;5002704;28;20027;-83
2023/11/06 00:58:32;;;;;;;1.95;0.77;;;14.40;90.30;;;;;;5006728;28;20394;-83
2023/11/06 01:00:57;;;;;;;1.50;0.70;;;14.50;90.30;;;;;;5005114;28;20035;-80
2023/11/06 01:03:23;;;;;;;1.63;0.80;;;14.50;90.30;;;;;;4974645;28;20023;-83
2023/11/06 01:05:48;;;;;;;1.85;0.80;;;14.50;90.20;;;;;;4986211;28;20030;-81
2023/11/06 01:08:14;;;;;;;1.83;0.80;;;14.50;90.10;;;;;;4995029;28;20036;-81
2023/11/06 01:10:40;;;;;;;1.98;0.80;;;14.50;90.10;;;;;;4994010;28;20026;-83
2023/11/06 01:13:05;;;;;;;1.73;0.77;;;14.60;90.10;;;;;;5002179;28;20398;-82
2023/11/06 01:15:31;;;;;;;1.65;0.80;;;14.50;90.00;;;;;;5003893;28;20029;-81
2023/11/06 01:17:58;;;;;;;1.38;0.77;;;14.60;90.00;;;;;;4986158;28;20022;-82
2023/11/06 01:20:24;;;;;;;1.73;0.90;;;14.60;90.10;;;;;;5008776;28;20030;-82
2023/11/06 01:22:49;;;;;;;1.35;0.80;;;14.60;90.10;;;;;;5011287;28;20022;-83
2023/11/06 01:25:15;;;;;;;0.98;0.70;;;14.50;90.10;;;;;;4994049;28;20030;-82
2023/11/06 01:27:41;;;;;;;2.00;0.88;;;14.50;90.10;;;;;;5012026;28;20488;-82
2023/11/06 01:30:07;;;;;;;1.60;0.80;;;14.50;90.10;;;;;;5006184;28;20052;-82
2023/11/06 01:32:33;;;;;;;2.10;1.00;;;14.50;90.20;;;;;;5007844;28;20520;-83
2023/11/06 01:34:59;;;;;;;1.23;0.68;;;14.50;90.20;;;;;;5009652;28;20026;-82
2023/11/06 01:37:26;;;;;;;1.48;0.82;;;14.50;90.40;;;;;;5002376;28;20022;-82
2023/11/06 01:39:51;;;;;;;0.85;0.60;;;14.50;90.20;;;;;;5009086;28;20388;-81
2023/11/06 01:42:17;;;;;;;1.95;0.80;;;14.50;90.30;;;;;;4993877;28;20030;-82
2023/11/06 01:44:43;;;;;;;1.25;0.70;;;14.50;90.30;;;;;;5011700;28;20030;-82
2023/11/06 01:47:09;;;;;;;1.77;0.80;;;14.50;90.30;;;;;;5017060;28;20503;-81
2023/11/06 01:49:40;;;;;;;1.25;0.63;;;14.40;90.30;;;;;;5016706;28;20112;-81
2023/11/06 01:52:09;;;;;;;3.35;0.80;;;14.40;90.50;;;;;;5004753;28;20039;-82
2023/11/06 01:54:35;;;;;;;2.42;0.80;;;14.40;90.30;;;;;;5001134;28;20086;-82
2023/11/06 01:57:03;;;;;;;1.30;0.77;;;14.40;90.30;;;;;;4998876;28;20054;-82
2023/11/06 01:59:28;;;;;;;1.65;0.95;;;14.40;90.30;;;;;;5002293;28;20037;-83
2023/11/06 02:01:58;;;;;;;1.55;0.80;;;14.40;90.50;;;;;;5016676;28;20029;-82
2023/11/06 02:04:24;;;;;;;1.73;0.80;;;14.40;90.40;;;;;;5016719;28;20033;-82
2023/11/06 02:06:50;;;;;;;1.75;0.90;;;14.40;90.40;;;;;;5018350;28;20388;-82
2023/11/06 02:09:16;;;;;;;1.98;0.90;;;14.40;90.30;;;;;;5017810;28;20030;-82
2023/11/06 02:11:43;;;;;;;1.73;0.80;;;14.40;90.30;;;;;;5001653;28;20495;-82
2023/11/06 02:14:09;;;;;;;2.42;0.90;;;14.40;90.30;;;;;;5005002;28;20057;-82
2023/11/06 02:16:34;;;;;;;1.85;0.80;;;14.40;90.30;;;;;;5002667;28;20076;-82
2023/11/06 02:19:00;;;;;;;2.40;0.85;;;14.40;90.40;;;;;;4996455;28;20030;-81
2023/11/06 02:21:26;;;;;;;1.38;0.70;;;14.40;90.40;;;;;;4998031;28;20026;-82
2023/11/06 02:23:51;;;;;;;1.05;0.80;;;14.40;90.40;;;;;;5006334;28;20443;-82
2023/11/06 02:26:17;;;;;;;1.83;0.80;;;14.40;90.30;;;;;;5018086;28;20041;-83
2023/11/06 02:28:50;;;;;;;1.45;0.90;;;14.50;90.30;;;;;;5008910;28;20058;-82
2023/11/06 02:31:15;;;;;;;1.30;0.80;;;14.50;90.30;;;;;;5002476;28;20377;-82
2023/11/06 02:33:42;;;;;;;1.85;0.90;;;14.50;90.20;;;;;;5016169;28;20068;-82
2023/11/06 02:36:08;;;;;;;1.80;0.80;;;14.50;90.20;;;;;;5016189;28;20021;-82
2023/11/06 02:38:35;;;;;;;1.40;0.70;;;14.50;90.10;;;;;;5008712;28;20094;-82
2023/11/06 02:41:01;;;;;;;1.27;0.80;;;14.50;90.10;;;;;;4996431;28;20030;-81
2023/11/06 02:43:26;;;;;;;0.95;0.55;;;14.60;90.10;;;;;;4996389;28;20121;-82
2023/11/06 02:45:52;;;;;;;1.65;0.77;;;14.50;90.10;;;;;;5003137;28;20026;-82
2023/11/06 02:48:18;;;;;;;1.95;0.75;;;14.50;90.10;;;;;;4999806;28;20033;-82
2023/11/06 02:50:44;;;;;;;0.98;0.70;;;14.60;90.10;;;;;;5009613;28;20030;-81
2023/11/06 02:53:10;;;;;;;1.70;0.70;;;14.50;90.10;;;;;;5002717;28;20045;-83
2023/11/06 02:55:36;;;;;;;2.90;0.80;;;14.50;90.20;;;;;;5003855;28;20484;-82
2023/11/06 02:58:03;;;;;;;1.45;0.70;;;14.50;90.20;;;;;;4996135;28;20015;-82
2023/11/06 03:00:28;;;;;;;1.45;0.70;;;14.50;90.20;;;;;;4997376;28;20056;-83
2023/11/06 03:02:54;;;;;;;1.25;0.80;;;14.50;90.20;;;;;;4996264;28;20045;-82
2023/11/06 03:05:20;;;;;;;1.15;0.70;;;14.40;90.30;;;;;;5002211;28;20037;-83
2023/11/06 03:07:46;;;;;;;2.00;0.90;;;14.40;90.30;;;;;;5007665;28;20037;-81
2023/11/06 03:10:12;;;;;;;1.52;0.68;;;14.40;90.30;;;;;;5002287;28;20029;-81
2023/11/06 03:12:37;;;;;;;1.55;0.77;;;14.40;90.30;;;;;;5001100;28;20031;-82
2023/11/06 03:15:03;;;;;;;1.65;0.80;;;14.40;90.30;;;;;;5002376;28;20014;-81
2023/11/06 03:17:29;;;;;;;1.80;0.90;;;14.40;90.50;;;;;;5013283;28;20056;-82
2023/11/06 03:19:54;;;;;;;1.42;0.73;;;14.40;90.30;;;;;;4997032;28;20101;-82
2023/11/06 03:22:21;;;;;;;1.88;0.90;;;14.40;90.40;;;;;;5014533;28;20017;-81
2023/11/06 03:24:47;;;;;;;2.33;0.80;;;14.40;90.40;;;;;;4995286;28;20030;-82
2023/11/06 03:27:12;;;;;;;1.98;0.95;;;14.40;90.40;;;;;;5006362;28;20022;-83
2023/11/06 03:29:38;;;;;;;1.48;0.63;;;14.40;90.40;;;;;;5009356;28;20030;-81
2023/11/06 03:32:04;;;;;;;1.52;0.60;;;14.40;90.40;;;;;;5014970;28;20025;-82
2023/11/06 03:34:30;;;;;;;1.15;0.80;;;14.40;90.40;;;;;;5006099;28;20026;-82
2023/11/06 03:36:55;;;;;;;1.58;0.80;;;14.40;90.40;;;;;;4999325;28;20491;-82
2023/11/06 03:39:22;;;;;;;1.27;0.68;;;14.40;90.40;;;;;;5002866;28;20034;-82
2023/11/06 03:41:47;;;;;;;2.05;0.93;;;14.40;90.40;;;;;;5001034;28;20562;-82
2023/11/06 03:44:13;;;;;;;2.08;0.98;;;14.40;90.40;;;;;;5003630;28;20026;-82
2023/11/06 03:46:39;;;;;;;1.52;0.80;;;14.40;90.40;;;;;;5006278;28;20026;-82
2023/11/06 03:49:06;;;;;;;0.98;0.68;;;14.40;90.40;;;;;;5007844;28;20094;-82
2023/11/06 03:51:32;;;;;;;1.08;0.80;;;14.40;90.40;;;;;;5035493;23;20408;-82
2023/11/06 03:53:57;;;;;;;2.22;0.80;;;14.40;90.40;;;;;;5031658;28;20068;-82
2023/11/06 03:56:23;;;;;;;0.70;0.60;;;14.40;90.40;;;;;;5020336;28;20018;-81
2023/11/06 03:58:48;;;;;;;1.42;0.93;;;14.40;90.30;;;;;;5037545;28;20101;-81
2023/11/06 04:01:14;;;;;;;0.95;0.68;;;14.50;90.30;;;;;;5013831;28;20025;-81
2023/11/06 04:03:40;;;;;;;1.42;0.80;;;14.50;90.20;;;;;;5014513;28;20018;-81
2023/11/06 04:06:06;;;;;;;0.95;0.70;;;14.50;90.20;;;;;;5019422;28;20052;-82
2023/11/06 04:08:31;;;;;;;1.13;0.80;;;14.50;90.10;;;;;;5017610;28;20112;-81
2023/11/06 04:10:57;;;;;;;1.13;0.55;;;14.50;90.10;;;;;;5008570;28;20037;-81
2023/11/06 04:13:23;;;;;;;1.33;0.70;;;14.50;90.10;;;;;;5039421;28;20113;-81
2023/11/06 04:15:49;;;;;;;1.55;0.80;;;14.50;90.10;;;;;;5035794;28;20013;-81
2023/11/06 04:18:14;;;;;;;1.20;0.70;;;14.50;90.20;;;;;;5009463;28;20021;-81
2023/11/06 04:20:42;;;;;;;0.85;0.70;;;14.50;90.20;;;;;;5019697;28;20021;-81
2023/11/06 04:23:09;;;;;;;1.13;0.80;;;14.50;90.20;;;;;;5012744;28;20029;-81
2023/11/06 04:25:36;;;;;;;1.80;0.80;;;14.40;90.20;;;;;;5008238;28;20022;-81
2023/11/06 04:28:02;;;;;;;1.48;0.70;;;14.50;90.30;;;;;;5039293;28;20046;-82
2023/11/06 04:30:27;;;;;;;2.05;0.70;;;14.40;90.30;;;;;;5036468;28;20045;-82
2023/11/06 04:32:53;;;;;;;2.30;0.70;;;14.40;90.30;;;;;;5023849;28;20132;-82
2023/11/06 04:35:18;;;;;;;1.58;0.60;;;14.40;90.30;;;;;;5042575;28;20026;-82
2023/11/06 04:37:46;;;;;;;2.13;0.90;;;14.40;90.30;;;;;;5025138;28;20017;-82
2023/11/06 04:40:12;;;;;;;1.48;0.90;;;14.40;90.30;;;;;;5021880;28;20017;-82
2023/11/06 04:42:39;;;;;;;1.08;0.68;;;14.40;90.60;;;;;;5024258;28;20105;-82
2023/11/06 04:45:05;;;;;;;0.80;0.65;;;14.40;90.40;;;;;;5022953;28;20087;-82
2023/11/06 04:47:30;;;;;;;0.82;0.63;;;14.40;90.40;;;;;;5021360;28;20006;-82
2023/11/06 04:49:56;;;;;;;1.35;0.63;;;14.40;90.40;;;;;;5019443;28;20030;-81
2023/11/06 04:52:21;;;;;;;2.17;0.90;;;14.40;90.40;;;;;;5041768;28;20037;-82
2023/11/06 04:54:47;;;;;;;1.45;0.70;;;14.40;90.40;;;;;;5023121;28;20022;-82
2023/11/06 04:57:13;;;;;;;1.60;0.68;;;14.40;90.40;;;;;;5019768;28;20016;-82
2023/11/06 04:59:42;;;;;;;1.70;0.70;;;14.40;90.40;;;;;;5017953;28;20483;-81
2023/11/06 05:02:07;;;;;;;2.08;0.70;;;14.40;90.40;;;;;;5032274;28;20495;-81
2023/11/06 05:04:33;;;;;;;2.58;1.00;;;14.40;90.40;;;;;;5020095;28;20108;-81
2023/11/06 05:06:58;;;;;;;0.95;0.70;;;14.40;90.40;;;;;;5011542;28;20108;-83
2023/11/06 05:09:24;;;;;;;0.88;0.70;;;14.40;90.40;;;;;;5015196;28;20108;-82
2023/11/06 05:11:49;;;;;;;1.25;0.73;;;14.40;90.40;;;;;;5035205;28;20017;-81
2023/11/06 05:14:15;;;;;;;1.63;0.80;;;14.40;90.40;;;;;;5021014;28;20476;-81
2023/11/06 05:16:40;;;;;;;1.10;0.50;;;14.40;90.40;;;;;;5019638;28;20550;-80
2023/11/06 05:19:06;;;;;;;1.35;0.73;;;14.40;90.40;;;;;;5023174;28;20108;-82
2023/11/06 05:21:31;;;;;;;1.92;0.80;;;14.50;90.40;;;;;;5017931;28;20037;-80
2023/11/06 05:23:57;;;;;;;2.35;0.85;;;14.40;90.30;;;;;;5017722;28;20640;-80
2023/11/06 05:26:23;;;;;;;1.63;0.90;;;14.50;90.30;;;;;;5015197;28;20033;-81
2023/11/06 05:28:48;;;;;;;2.00;0.85;;;14.50;90.20;;;;;;5019792;28;20029;-80
2023/11/06 05:31:14;;;;;;;1.20;0.73;;;14.50;90.20;;;;;;5005559;28;20050;-81
2023/11/06 05:33:40;;;;;;;0.90;0.60;;;14.50;90.10;;;;;;5008943;28;20026;-81
2023/11/06 05:36:07;;;;;;;1.20;0.70;;;14.50;90.10;;;;;;5011178;28;20109;-81
2023/11/06 05:38:33;;;;;;;1.33;0.70;;;14.50;90.10;;;;;;5011860;28;20053;-80
2023/11/06 05:40:58;;;;;;;1.63;0.60;;;14.50;90.10;;;;;;5004280;28;20026;-82
2023/11/06 05:43:24;;;;;;;0.88;0.60;;;14.50;90.20;;;;;;5006937;28;20040;-80
2023/11/06 05:45:49;;;;;;;1.70;0.73;;;14.50;90.20;;;;;;5028054;28;20026;-80
2023/11/06 05:48:15;;;;;;;1.30;0.77;;;14.50;90.50;;;;;;5013878;28;20029;-81
2023/11/06 05:50:40;;;;;;;1.45;0.65;;;14.50;90.30;;;;;;5031512;28;20037;-81
2023/11/06 05:53:06;;;;;;;0.82;0.60;;;14.40;90.30;;;;;;5005985;28;20041;-80
2023/11/06 05:55:33;;;;;;;1.80;0.90;;;14.40;90.30;;;;;;5030957;28;20518;-80
2023/11/06 05:57:58;;;;;;;1.77;0.90;;;14.40;90.30;;;;;;5020711;28;20087;-80
2023/11/06 06:00:24;;;;;;;1.98;0.90;;;14.40;90.30;;;;;;5024639;28;20561;-81
2023/11/06 06:02:49;;;;;;;1.20;0.80;;;14.40;90.40;;;;;;5032194;28;20056;-82
2023/11/06 06:05:15;;;;;;;1.40;0.80;;;14.40;90.40;;;;;;5034979;28;20021;-81
2023/11/06 06:07:41;;;;;;;1.23;0.70;;;14.40;90.40;;;;;;5013967;28;20036;-79
2023/11/06 06:10:07;;;;;;;1.98;0.80;;;14.40;90.40;;;;;;5006300;28;20028;-81
2023/11/06 06:12:33;;;;;;;1.45;0.70;;;14.40;90.40;;;;;;5019868;28;20118;-79
2023/11/06 06:14:59;;;;;;;1.35;0.75;;;14.40;90.40;;;;;;5036746;28;20496;-80
2023/11/06 06:17:25;;;;;;;1.60;0.70;;;14.40;90.40;;;;;;5018999;28;20090;-83
2023/11/06 06:19:51;;;;;;;0.80;0.60;;;14.40;90.40;;;;;;5017384;28;20116;-79
2023/11/06 06:22:16;;;;;;;1.48;0.70;;;14.40;90.40;;;;;;5018040;28;20030;-80
2023/11/06 06:24:42;;;;;;;0.88;0.60;;;14.40;90.40;;;;;;5019473;28;20033;-80
2023/11/06 06:27:08;;;;;;;1.02;0.70;;;14.40;90.40;;;;;;5010775;28;20018;-80
2023/11/06 06:29:34;;;;;;;1.02;0.63;;;14.40;90.40;;;;;;5014510;28;20509;-82
2023/11/06 06:32:00;;;;;;;1.90;0.90;;;14.40;90.50;;;;;;5030998;28;20036;-80
2023/11/06 06:34:26;;;;;;;1.15;0.70;;;14.40;90.40;;;;;;5003790;28;20475;-79
2023/11/06 06:36:51;;;;;;;1.15;0.70;;;14.40;90.50;;;;;;5002306;28;20033;-81
2023/11/06 06:39:17;;;;;;;2.17;0.70;;;14.40;90.50;;;;;;4995034;28;20030;-77
2023/11/06 06:44:12;;;;;;;1.25;0.65;;;14.40;90.40;;;;;;5035596;28;20065;-80
2023/11/06 06:46:37;;;;;;;0.70;0.70;;;14.40;90.40;;;;;;5026596;28;20028;-84
2023/11/06 06:49:03;;;;;;;3.13;0.80;;;14.40;90.30;;;;;;5013386;28;20018;-77
2023/11/06 06:51:28;;;;;;;1.02;0.70;;;14.50;90.20;;;;;;5026562;28;20389;-82
2023/11/06 06:53:54;;;;;;;1.25;0.68;;;14.50;90.20;;;;;;5037832;28;20066;-83
2023/11/06 06:56:20;;;;;;;2.38;0.80;;;14.50;90.20;;;;;;5049418;28;20025;-81
2023/11/06 06:58:46;;;;;;;1.65;0.60;;;14.50;90.10;;;;;;5034496;28;20060;-81
2023/11/06 07:01:13;;;;;;;2.58;0.90;;;14.50;90.10;;;;;;5032350;28;20423;-82
2023/11/06 07:03:38;;;;;;;1.38;0.70;;;14.50;90.10;;;;;;5030167;28;20058;-80
2023/11/06 07:06:06;;;;;;;2.05;0.80;;;14.50;90.10;;;;;;5031282;28;20500;-81
2023/11/06 07:08:32;;;;;;;2.97;0.93;;;14.50;90.40;;;;;;5029351;28;20054;-80
2023/11/06 07:10:57;;;;;;;2.30;0.85;;;14.50;90.20;;;;;;5028866;28;20029;-80
2023/11/06 07:13:23;;;;;;;2.75;0.82;;;14.50;90.20;;;;;;5029769;28;20032;-80
2023/11/06 07:15:48;;;;;;;1.23;0.60;;;14.40;90.20;;;;;;5027822;28;20431;-80
2023/11/06 07:18:14;;;;;;;2.13;0.88;;;14.40;90.30;;;;;;5026816;28;20036;-80
2023/11/06 07:20:39;;;;;;;1.42;0.70;;;14.40;90.30;;;;;;5027003;28;20037;-81
2023/11/06 07:23:06;;;;;;;2.45;0.85;;;14.40;90.30;;;;;;5025920;28;20026;-81
2023/11/06 07:25:31;;;;;;;2.40;0.80;;;14.40;90.30;;;;;;5028445;28;20052;-81
2023/11/06 07:27:57;;;;;;;1.90;0.90;;;14.40;90.30;;;;;;5025821;28;20411;-80
2023/11/06 07:30:23;;;;;;;3.17;0.90;;;14.40;90.30;;;;;;5026172;28;20033;-80
2023/11/06 07:32:49;;;;;;;1.42;0.75;;;14.40;90.40;;;;;;5024761;28;20034;-80
2023/11/06 07:35:15;;;;;;;1.50;0.60;;;14.40;90.40;;;;;;5026952;28;20594;-80
2023/11/06 07:37:41;;;;;;;2.30;0.80;;;14.40;90.40;;;;;;5023820;28;20089;-80
2023/11/06 07:40:08;;;;;;;2.25;0.75;;;14.40;90.40;;;;;;5022615;28;20396;-80
2023/11/06 07:42:34;;;;;;;1.77;0.65;;;14.40;90.40;;;;;;5025102;28;20081;-80
2023/11/06 07:45:00;;;;;;;1.50;0.80;;;14.40;90.40;;;;;;5025165;28;20397;-80
2023/11/06 07:47:26;;;;;;;1.92;0.77;;;14.40;90.40;;;;;;5024432;28;20061;-80
2023/11/06 07:49:52;;;;;;;2.85;0.70;;;14.40;90.40;;;;;;5023607;28;20018;-80
2023/11/06 07:52:18;;;;;;;2.42;0.80;;;14.40;90.40;;;;;;5020636;28;20049;-80
2023/11/06 07:54:44;;;;;;;1.23;0.88;;;14.40;90.40;;;;;;5022482;28;20014;-80
2023/11/06 07:57:09;;;;;;;0.80;0.52;;;14.40;90.40;;;;;;5022842;28;20537;-80
2023/11/06 07:59:41;;;;;;;1.52;0.75;;;14.40;90.40;;;;;;5022114;28;20018;-80
2023/11/06 08:02:10;;;;;;;1.65;0.77;;;14.40;90.40;;;;;;5026536;28;20029;-82
2023/11/06 08:04:43;;;;;;;2.38;0.80;;;14.40;90.40;;;;;;5032563;28;20010;-82
2023/11/06 08:07:09;;;;;;;1.60;0.70;;;14.40;90.40;;;;;;5032586;28;20435;-82
2023/11/06 08:09:34;;;;;;;2.38;1.05;;;14.40;90.40;;;;;;5031045;28;20010;-80
2023/11/06 08:12:00;;;;;;;0.93;0.52;;;14.40;90.40;;;;;;5030371;28;20090;-81
2023/11/06 08:14:26;;;;;;;1.27;0.70;;;14.40;90.30;;;;;;5030041;28;20026;-81
2023/11/06 08:16:51;;;;;;;2.30;0.90;;;14.50;90.30;;;;;;5030948;28;20026;-80
2023/11/06 08:19:17;;;;;;;1.77;0.70;;;14.50;90.20;;;;;;5028428;28;20081;-81
2023/11/06 08:21:42;;;;;;;1.20;0.70;;;14.50;90.20;;;;;;5030264;28;20093;-80
2023/11/06 08:24:08;;;;;;;1.60;0.80;;;14.50;90.10;;;;;;5029085;28;20538;-80
2023/11/06 08:26:33;;;;;;;1.98;0.70;;;14.50;90.10;;;;;;5027368;28;20081;-80
2023/11/06 08:28:59;;;;;;;1.75;0.80;;;14.50;90.10;;;;;;5028178;28;20081;-80
2023/11/06 08:31:25;;;;;;;1.75;0.90;;;14.50;90.10;;;;;;5027854;28;20062;-81
2023/11/06 08:33:50;;;;;;;1.73;0.70;;;14.50;90.10;;;;;;5026303;28;20034;-81
2023/11/06 08:36:16;;;;;;;1.10;0.70;;;14.50;90.10;;;;;;5027728;28;20030;-80
2023/11/06 08:38:43;;;;;;;1.60;0.80;;;14.50;90.10;;;;;;5024771;28;20032;-81
2023/11/06 08:41:09;;;;;;;1.27;0.60;;;14.40;90.10;;;;;;5024832;28;20459;-81
2023/11/06 08:43:35;;;;;;;1.60;0.65;;;14.50;90.20;;;;;;5024227;28;20491;-81
2023/11/06 08:46:02;;;;;;;1.77;0.65;;;14.40;90.20;;;;;;5024163;28;20026;-80
2023/11/06 08:48:28;;;;;;;3.42;1.23;;;14.40;90.20;;;;;;5023073;28;20030;-81
2023/11/06 08:50:54;;;;;;;1.65;0.80;;;14.50;90.20;;;;;;5033940;28;20030;-80
2023/11/06 08:53:19;;;;;;;1.65;0.60;;;14.40;90.30;;;;;;5040582;28;20063;-80
2023/11/06 08:55:47;;;;;;;1.90;0.90;;;14.40;90.30;;;;;;5040739;28;20029;-79
2023/11/06 08:58:16;;;;;;;3.00;0.70;;;14.40;90.20;;;;;;5040462;28;20030;-80
2023/11/06 09:00:42;;;;;;;0.95;0.60;;;14.40;90.20;;;;;;5040790;28;20125;-80
2023/11/06 09:03:09;;;;;;;3.00;0.80;;;14.40;90.30;;;;;;5040539;28;20036;-80
2023/11/06 09:05:35;;;;;;;1.65;0.90;;;14.40;90.30;;;;;;5042077;28;20048;-80
2023/11/06 09:08:01;;;;;;;1.30;0.73;;;14.40;90.20;;;;;;5041824;28;20030;-81
2023/11/06 09:10:27;;;;;;;1.70;0.80;;;14.40;90.20;;;;;;5038931;28;20037;-80
2023/11/06 09:12:55;;;;;;;1.83;0.60;;;14.40;90.20;;;;;;5038475;28;20018;-80
2023/11/06 09:15:20;;;;;;;1.42;0.70;;;14.40;90.20;;;;;;5041408;28;20079;-80
2023/11/06 09:17:46;;;;;;;1.63;0.70;;;14.40;90.20;;;;;;5041949;28;20025;-80
2023/11/06 09:20:13;;;;;;;2.63;0.73;;;14.40;90.30;;;;;;5039138;28;20480;-80
2023/11/06 09:22:38;;;;;;;1.67;0.70;;;14.40;90.30;;;;;;5037861;28;20105;-80
2023/11/06 09:25:08;;;;;;;1.80;0.80;;;14.40;90.30;;;;;;5039721;28;20048;-81
2023/11/06 09:27:36;;;;;;;1.75;0.90;;;14.50;90.30;;;;;;5039418;28;20033;-80
2023/11/06 09:30:02;;;;;;;2.78;0.73;;;14.50;90.30;;;;;;5038085;28;20029;-80
2023/11/06 09:32:28;;;;;;;1.50;0.82;;;14.50;90.30;;;;;;5037765;28;20097;-81
2023/11/06 09:34:55;;;;;;;2.22;0.68;;;14.50;90.30;;;;;;5035811;28;20112;-80
2023/11/06 09:37:21;;;;;;;1.88;0.80;;;14.50;90.30;;;;;;5035717;28;20033;-80
2023/11/06 09:39:46;;;;;;;2.45;0.65;;;14.60;90.20;;;;;;5037377;28;20025;-80
2023/11/06 09:42:12;;;;;;;1.27;0.70;;;14.50;90.20;;;;;;5035447;28;20049;-80
2023/11/06 09:44:38;;;;;;;3.28;0.80;;;14.60;90.10;;;;;;5035552;28;20506;-79
2023/11/06 09:47:07;;;;;;;1.40;0.65;;;14.60;90.10;;;;;;5035661;28;20509;-80
2023/11/06 09:49:42;;;;;;;1.48;0.73;;;14.60;90.00;;;;;;5034855;28;20026;-80
2023/11/06 09:52:08;;;;;;;1.63;0.60;;;14.60;90.00;;;;;;5004345;22;20493;-83
2023/11/06 09:54:33;;;;;;;1.58;0.75;;;14.60;90.00;;;;;;4973392;28;20030;-83
2023/11/06 09:56:59;;;;;;;1.23;0.70;;;14.60;90.00;;;;;;4957988;28;20401;-83
2023/11/06 09:59:25;;;;;;;2.22;0.90;;;14.60;90.00;;;;;;4957505;28;20027;-83
2023/11/06 10:01:54;;;;;;;2.45;0.90;;;14.60;90.10;;;;;;4957569;28;20034;-83
2023/11/06 10:04:21;;;;;;;1.85;0.82;;;14.60;90.10;;;;;;4973916;28;20552;-83
2023/11/06 10:06:49;;;;;;;0.73;0.60;;;14.50;90.10;;;;;;4977508;28;20531;-83
2023/11/06 10:09:25;;;;;;;2.35;0.88;;;14.60;90.20;;;;;;4960901;28;20037;-83
2023/11/06 10:11:51;;;;;;;1.02;0.70;;;14.60;90.20;;;;;;4977212;28;20191;-83
2023/11/06 10:14:16;;;;;;;2.15;0.85;;;14.60;90.20;;;;;;4977002;28;20570;-83
2023/11/06 10:16:42;;;;;;;1.27;0.80;;;14.50;90.20;;;;;;4978149;28;20098;-82
2023/11/06 10:19:16;;;;;;;1.27;0.70;;;14.50;90.20;;;;;;4977168;28;20481;-82
2023/11/06 10:21:42;;;;;;;1.75;0.65;;;14.50;90.20;;;;;;4977116;28;20453;-83
2023/11/06 10:24:11;;;;;;;1.50;0.70;;;14.50;90.20;;;;;;4978380;28;20027;-82
2023/11/06 10:26:38;;;;;;;0.95;0.70;;;14.50;90.20;;;;;;4960721;28;20023;-83
2023/11/06 10:29:12;;;;;;;1.70;0.60;;;14.50;90.20;;;;;;4976428;28;20023;-82
2023/11/06 10:31:40;;;;;;;2.20;0.90;;;14.50;90.20;;;;;;4960754;28;20089;-83
2023/11/06 10:34:37;;;;;;;1.30;0.60;;;14.50;90.30;;;;;;4977829;28;20426;-82
2023/11/06 10:37:13;;;;;;;1.60;0.60;;;14.50;90.30;;;;;;4978515;28;20477;-82
2023/11/06 10:39:40;;;;;;;1.65;0.80;;;14.50;90.30;;;;;;4976231;28;20114;-82
2023/11/06 10:42:09;;;;;;;1.20;0.85;;;14.50;90.20;;;;;;4976319;28;20023;-82
2023/11/06 10:44:36;;;;;;;0.90;0.60;;;14.50;90.20;;;;;;4960386;28;20023;-82
2023/11/06 10:47:07;;;;;;;3.03;0.90;;;14.50;90.20;;;;;;4977547;28;20019;-83
2023/11/06 10:49:53;;;;;;;3.55;0.80;;;14.50;90.20;;;;;;4977404;28;20023;-82
2023/11/06 10:52:20;;;;;;;1.73;0.77;;;14.50;90.20;;;;;;4960058;28;20042;-82
2023/11/06 10:54:47;;;;;;;1.23;0.68;;;14.50;90.10;;;;;;4976288;28;20027;-80
2023/11/06 10:57:17;;;;;;;1.35;0.70;;;14.60;90.10;;;;;;4975937;28;20121;-83
2023/11/06 10:59:43;;;;;;;1.13;0.77;;;14.60;90.10;;;;;;4959729;28;20508;-81
2023/11/06 11:02:42;;;;;;;1.30;0.70;;;14.60;90.00;;;;;;4960047;28;20027;-83
2023/11/06 11:05:11;;;;;;;1.80;0.63;;;14.70;90.00;;;;;;4959884;28;20449;-82
2023/11/06 11:07:45;;;;;;;3.35;0.73;;;14.70;90.10;;;;;;4959479;28;20023;-82
2023/11/06 11:10:15;;;;;;;2.45;0.55;;;14.70;89.80;;;;;;4959674;28;20576;-83
2023/11/06 11:12:42;;;;;;;1.58;0.70;;;14.70;89.60;;;;;;4959583;28;20034;-82
2023/11/06 11:15:08;;;;;;;2.13;0.80;;;14.80;89.60;;;;;;4959633;28;20481;-82
2023/11/06 11:17:37;;;;;;;2.05;0.77;;;14.80;89.40;;;;;;4975713;28;20030;-82
2023/11/06 11:20:06;;;;;;;1.58;0.70;;;14.80;89.30;;;;;;4975732;28;20029;-82
2023/11/06 11:22:32;;;;;;;2.05;0.73;;;14.80;89.30;;;;;;4959464;28;20370;-82
2023/11/06 11:24:59;;;;;;;1.85;0.60;;;14.80;89.40;;;;;;4975801;28;20034;-82
2023/11/06 11:27:27;;;;;;;1.75;0.90;;;14.80;89.40;;;;;;4959728;28;20034;-83
2023/11/06 11:29:53;;;;;;;1.88;0.60;;;14.80;89.50;;;;;;4976755;28;20027;-83
2023/11/06 11:32:30;;;;;;;1.70;0.70;;;14.80;89.60;;;;;;4959381;28;20026;-83
2023/11/06 11:35:19;;;;;;;1.55;0.68;;;14.80;89.60;;;;;;4977250;28;20033;-82
2023/11/06 11:37:57;;;;;;;2.00;0.77;;;14.80;89.50;;;;;;4922388;28;20041;-82
2023/11/06 11:40:24;;;;;;;2.03;0.63;;;14.80;89.40;;;;;;4958922;28;20033;-82
2023/11/06 11:42:49;;;;;;;2.17;0.80;;;14.80;89.20;;;;;;4975032;28;20027;-82
2023/11/06 11:45:32;;;;;;;1.45;0.60;;;14.90;89.30;;;;;;4975003;28;20031;-82
2023/11/06 11:47:58;;;;;;;1.95;0.70;;;14.90;89.20;;;;;;4976442;28;20145;-81
2023/11/06 11:50:39;;;;;;;2.95;0.70;;;14.90;89.10;;;;;;4974432;28;20118;-81
2023/11/06 11:53:06;;;;;;;1.58;0.60;;;14.90;89.20;;;;;;4976241;28;20033;-81
2023/11/06 11:55:34;;;;;;;2.22;0.70;;;14.90;89.10;;;;;;4976207;28;20019;-81
2023/11/06 11:58:07;;;;;;;1.02;0.60;;;14.90;89.10;;;;;;4958657;28;20094;-81
2023/11/06 12:00:38;;;;;;;2.17;0.80;;;15.00;89.20;;;;;;4976010;28;20027;-83
2023/11/06 12:03:10;;;;;;;1.60;0.60;;;14.90;89.10;;;;;;4976121;28;20038;-82
2023/11/06 12:05:36;;;;;;;2.13;0.80;;;14.90;89.10;;;;;;4959112;28;20050;-81
2023/11/06 12:08:20;;;;;;;2.28;0.70;;;14.90;89.20;;;;;;4958509;28;20030;-82
2023/11/06 12:10:48;;;;;;;1.13;0.60;;;14.90;89.30;;;;;;4958600;28;20450;-83
2023/11/06 12:13:18;;;;;;;1.95;0.60;;;14.90;89.40;;;;;;4958667;28;20026;-83
2023/11/06 12:15:45;;;;;;;1.58;0.60;;;14.80;89.40;;;;;;4974797;28;20029;-81
2023/11/06 12:18:12;;;;;;;1.80;0.70;;;14.80;89.50;;;;;;4975998;28;20102;-82
2023/11/06 12:20:39;;;;;;;1.23;0.60;;;14.80;89.60;;;;;;4958472;28;20034;-82
2023/11/06 12:23:05;;;;;;;1.75;0.60;;;14.80;89.70;;;;;;4976139;28;20584;-82
2023/11/06 12:25:33;;;;;;;2.08;0.60;;;14.80;89.70;;;;;;4974520;28;20093;-81
2023/11/06 12:28:13;;;;;;;1.48;0.70;;;14.80;89.90;;;;;;4975267;28;20027;-82
2023/11/06 12:30:40;;;;;;;1.45;0.73;;;14.80;90.00;;;;;;4958077;28;20054;-81
2023/11/06 12:33:11;;;;;;;1.25;0.55;;;14.80;89.90;;;;;;4974499;28;20077;-82
2023/11/06 12:35:40;;;;;;;2.25;0.70;;;14.80;89.80;;;;;;4974275;28;20113;-82
2023/11/06 12:38:06;;;;;;;1.83;0.60;;;14.80;89.60;;;;;;4958398;28;20023;-81
2023/11/06 12:40:32;;;;;;;1.20;0.57;;;14.80;89.50;;;;;;4974086;28;20118;-80
2023/11/06 12:43:01;;;;;;;1.27;0.70;;;14.80;89.30;;;;;;4974213;28;20022;-82
2023/11/06 12:45:30;;;;;;;1.75;0.80;;;14.80;89.30;;;;;;4958037;28;20029;-82
2023/11/06 12:47:56;;;;;;;1.60;0.68;;;14.80;89.20;;;;;;4958310;28;20026;-81